Time;durP1;ratioP1;P1;durP2;ratioP2;P2;SDS_P1;SDS_P2;PMS_P1;PMS_P2;Temp;Humidity;BMP_temperature;BMP_pressure;BME280_temperature;BME280_humidity;BME280_pressure;Samples;Min_cycle;Max_cycle;Signal;HPM_P1;HPM_P2
2021/10/06 00:02:10;;;;;;;11.87;10.77;;;;;;;14.23;77.36;100301.81;5060217;28;20776;-70
2021/10/06 00:04:35;;;;;;;13.13;11.93;;;;;;;14.12;77.29;100297.53;5059742;28;20189;-68
2021/10/06 00:07:01;;;;;;;12.43;11.27;;;;;;;14.14;76.90;100301.03;5058936;28;20189;-69
2021/10/06 00:09:26;;;;;;;12.00;11.00;;;;;;;14.33;76.49;100308.69;5060446;28;20181;-68
2021/10/06 00:11:51;;;;;;;12.50;10.87;;;;;;;14.15;77.30;100321.13;5060264;28;20205;-69
2021/10/06 00:14:16;;;;;;;12.17;11.07;;;;;;;13.95;78.00;100323.06;5059883;28;20173;-69
2021/10/06 00:16:42;;;;;;;12.20;11.10;;;;;;;13.84;77.90;100317.09;5060501;28;20559;-69
2021/10/06 00:19:08;;;;;;;11.37;10.20;;;;;;;14.36;76.46;100319.13;5059163;28;20542;-69
2021/10/06 00:21:33;;;;;;;13.27;11.83;;;;;;;14.25;76.58;100318.41;5059477;28;20212;-68
2021/10/06 00:23:59;;;;;;;11.90;10.80;;;;;;;14.08;76.73;100326.44;5060078;28;20265;-69
2021/10/06 00:26:24;;;;;;;11.67;10.47;;;;;;;14.22;76.70;100334.13;5059386;28;20174;-69
2021/10/06 00:28:49;;;;;;;11.90;10.70;;;;;;;14.08;77.06;100332.53;5059355;28;20239;-69
2021/10/06 00:31:15;;;;;;;11.00;10.00;;;;;;;14.22;76.55;100337.66;5059746;28;20207;-68
2021/10/06 00:33:41;;;;;;;11.80;10.70;;;;;;;14.27;76.10;100338.44;5059319;28;20442;-69
2021/10/06 00:36:06;;;;;;;13.03;11.73;;;;;;;14.37;75.33;100339.22;5059258;28;20205;-69
2021/10/06 00:38:32;;;;;;;12.47;11.27;;;;;;;14.51;74.99;100349.53;5059703;28;20642;-69
2021/10/06 00:40:57;;;;;;;13.07;11.77;;;;;;;14.49;75.40;100343.41;5059096;28;20184;-69
2021/10/06 00:43:23;;;;;;;12.13;11.07;;;;;;;14.40;75.73;100341.78;5059166;28;20279;-68
2021/10/06 00:45:48;;;;;;;11.80;10.70;;;;;;;14.86;74.24;100352.59;5059507;28;20188;-68
2021/10/06 00:48:14;;;;;;;13.00;11.80;;;;;;;14.63;74.79;100359.03;5059469;28;20713;-69
2021/10/06 00:50:40;;;;;;;12.87;11.40;;;;;;;14.46;75.55;100359.19;5059403;28;20473;-70
2021/10/06 00:53:06;;;;;;;12.27;11.07;;;;;;;14.51;74.87;100361.78;5061336;28;20224;-69
2021/10/06 00:55:31;;;;;;;12.47;11.27;;;;;;;14.25;75.50;100361.19;5059137;28;20465;-69
2021/10/06 00:57:56;;;;;;;15.70;11.80;;;;;;;13.87;76.76;100346.78;5059040;28;20278;-68
2021/10/06 01:00:22;;;;;;;12.30;11.23;;;;;;;14.25;75.94;100360.34;5059517;28;20174;-69
2021/10/06 01:02:47;;;;;;;11.47;10.47;;;;;;;14.31;75.74;100363.75;5058804;28;20208;-69
2021/10/06 01:05:12;;;;;;;13.47;12.00;;;;;;;14.24;75.64;100366.47;5058298;28;20204;-69
2021/10/06 01:07:38;;;;;;;12.77;11.47;;;;;;;14.29;75.78;100368.16;5058920;28;20252;-68
2021/10/06 01:10:05;;;;;;;17.40;12.10;;;;;;;14.49;74.36;100357.41;5057786;28;20220;-68
2021/10/06 01:12:32;;;;;;;12.60;11.00;;;;;;;14.42;74.71;100368.88;5058631;28;20174;-69
2021/10/06 01:14:58;;;;;;;13.73;12.33;;;;;;;14.14;75.98;100369.19;5058285;28;20398;-69
2021/10/06 01:17:23;;;;;;;12.40;11.20;;;;;;;14.27;75.22;100372.53;5057671;28;20438;-68
2021/10/06 01:19:49;;;;;;;13.20;10.83;;;;;;;14.30;75.20;100371.63;5057341;28;20181;-69
2021/10/06 01:22:15;;;;;;;12.80;11.40;;;;;;;14.12;75.44;100380.56;5059255;28;20438;-68
2021/10/06 01:24:41;;;;;;;13.17;11.77;;;;;;;14.73;73.55;100378.13;5058362;28;20174;-68
2021/10/06 01:27:06;;;;;;;12.07;10.93;;;;;;;14.27;74.63;100384.78;5057705;28;20398;-68
2021/10/06 01:29:31;;;;;;;11.53;10.40;;;;;;;14.36;74.60;100387.28;5058718;28;20182;-69
2021/10/06 01:31:57;;;;;;;12.87;11.53;;;;;;;14.49;74.50;100393.25;5058321;28;20482;-68
2021/10/06 01:34:23;;;;;;;15.10;11.70;;;;;;;13.74;76.41;100389.69;5058393;28;20295;-68
2021/10/06 01:36:50;;;;;;;14.07;11.90;;;;;;;14.08;75.51;100400.69;5058590;28;20201;-69
2021/10/06 01:39:17;;;;;;;13.87;11.67;;;;;;;14.15;74.63;100391.00;5058362;28;20395;-68
2021/10/06 01:41:43;;;;;;;13.67;12.47;;;;;;;13.83;76.07;100400.09;5058171;28;20760;-68
2021/10/06 01:44:12;;;;;;;13.40;12.17;;;;;;;14.00;75.23;100399.91;5058766;28;20855;-69
2021/10/06 01:46:37;;;;;;;14.10;12.57;;;;;;;13.79;75.65;100404.47;5058110;28;20725;-69
2021/10/06 01:49:02;;;;;;;13.87;12.47;;;;;;;13.78;75.42;100407.97;5058127;28;20427;-69
2021/10/06 01:51:28;;;;;;;14.13;12.63;;;;;;;13.61;75.98;100402.91;5057963;28;20232;-69
2021/10/06 01:53:53;;;;;;;14.60;12.10;;;;;;;14.03;74.61;100407.75;5058233;28;20189;-68
2021/10/06 01:56:18;;;;;;;14.13;12.17;;;;;;;13.92;75.36;100413.09;5058197;28;20194;-69
2021/10/06 01:58:47;;;;;;;13.10;11.60;;;;;;;14.07;74.32;100413.81;5058060;28;20177;-68
2021/10/06 02:01:13;;;;;;;15.03;12.30;;;;;;;14.06;74.31;100412.06;5058005;28;20442;-69
2021/10/06 02:03:38;;;;;;;13.30;12.03;;;;;;;13.88;75.13;100408.78;5058538;28;20410;-68
2021/10/06 02:06:04;;;;;;;15.27;13.03;;;;;;;13.69;75.13;100418.53;5058075;28;20184;-68
2021/10/06 02:08:29;;;;;;;17.07;13.10;;;;;;;13.59;75.23;100416.88;5057956;28;20166;-69
2021/10/06 02:10:54;;;;;;;14.23;12.73;;;;;;;13.77;74.51;100416.75;5057515;28;20243;-69
2021/10/06 02:13:20;;;;;;;13.33;12.03;;;;;;;13.77;74.45;100421.97;5057988;28;20181;-69
2021/10/06 02:15:47;;;;;;;13.90;12.50;;;;;;;13.48;75.68;100424.81;5057224;28;20221;-69
2021/10/06 02:18:12;;;;;;;15.40;13.30;;;;;;;13.90;74.22;100420.09;5058692;28;20170;-69
2021/10/06 02:20:37;;;;;;;15.60;14.00;;;;;;;13.61;75.01;100420.34;5058007;28;20783;-69
2021/10/06 02:23:03;;;;;;;14.03;12.47;;;;;;;13.65;74.10;100424.69;5058263;28;20181;-71
2021/10/06 02:25:28;;;;;;;14.67;13.13;;;;;;;13.87;72.86;100420.13;5058364;28;20177;-68
2021/10/06 02:27:53;;;;;;;14.23;12.83;;;;;;;13.67;73.64;100430.78;5057876;28;20451;-69
2021/10/06 02:30:18;;;;;;;12.80;11.43;;;;;;;14.01;73.07;100429.63;5057963;28;20180;-69
2021/10/06 02:32:44;;;;;;;12.83;11.47;;;;;;;14.02;72.25;100434.84;5062138;28;20504;-69
2021/10/06 02:35:10;;;;;;;12.43;11.30;;;;;;;14.34;71.25;100427.53;5061450;28;20216;-68
2021/10/06 02:37:36;;;;;;;13.27;11.77;;;;;;;14.34;71.28;100432.78;5061637;28;20212;-69
2021/10/06 02:40:03;;;;;;;13.37;12.07;;;;;;;14.07;71.71;100435.69;5061094;28;20195;-68
2021/10/06 02:42:28;;;;;;;12.10;10.90;;;;;;;14.32;71.01;100440.66;5061411;28;20805;-69
2021/10/06 02:44:53;;;;;;;12.10;11.10;;;;;;;14.21;71.61;100437.31;5061592;28;20387;-69
2021/10/06 02:47:18;;;;;;;13.00;11.70;;;;;;;14.23;71.20;100444.22;5061979;28;20165;-68
2021/10/06 02:49:44;;;;;;;13.13;11.70;;;;;;;13.87;72.73;100440.22;5061473;28;20256;-69
2021/10/06 02:52:09;;;;;;;12.47;11.13;;;;;;;13.60;73.52;100442.19;5061409;28;20545;-70
2021/10/06 02:54:34;;;;;;;13.10;11.97;;;;;;;14.00;71.95;100449.72;5061933;28;20166;-69
2021/10/06 02:57:01;;;;;;;13.40;11.57;;;;;;;13.57;72.97;100445.72;5061166;28;20209;-68
2021/10/06 02:59:28;;;;;;;13.13;11.60;;;;;;;13.70;73.19;100450.84;5061014;28;20177;-68
2021/10/06 03:01:55;;;;;;;15.23;12.13;;;;;;;14.02;72.27;100458.44;5061408;28;20537;-69
2021/10/06 03:04:20;;;;;;;16.33;12.33;;;;;;;13.82;72.40;100458.59;5060827;28;20509;-68
2021/10/06 03:06:46;;;;;;;16.10;13.30;;;;;;;13.53;73.70;100467.56;5061005;28;20181;-68
2021/10/06 03:09:11;;;;;;;13.47;12.20;;;;;;;13.76;72.44;100459.53;5061600;28;20480;-68
2021/10/06 03:11:37;;;;;;;15.40;12.43;;;;;;;13.68;72.59;100463.06;5059936;28;20174;-69
2021/10/06 03:14:02;;;;;;;16.90;14.23;;;;;;;14.05;71.42;100463.66;5060973;28;20449;-68
2021/10/06 03:16:27;;;;;;;14.50;11.47;;;;;;;13.69;72.24;100468.31;5061030;28;20205;-68
2021/10/06 03:18:53;;;;;;;13.00;11.60;;;;;;;13.46;72.75;100479.84;5060739;28;20181;-69
2021/10/06 03:21:18;;;;;;;13.30;12.10;;;;;;;13.62;72.23;100472.72;5060734;28;20594;-68
2021/10/06 03:23:43;;;;;;;13.87;12.47;;;;;;;13.30;73.56;100488.59;5061345;28;20483;-68
2021/10/06 03:26:08;;;;;;;16.67;12.47;;;;;;;13.62;72.59;100480.56;5060015;28;20173;-70
2021/10/06 03:28:34;;;;;;;16.63;12.33;;;;;;;13.77;71.95;100490.09;5060524;28;20174;-68
2021/10/06 03:30:59;;;;;;;13.67;12.27;;;;;;;13.63;72.29;100495.41;5060987;28;20170;-68
2021/10/06 03:33:24;;;;;;;15.67;12.00;;;;;;;13.77;72.03;100497.97;5060526;28;20173;-69
2021/10/06 03:35:50;;;;;;;13.77;12.37;;;;;;;13.28;73.18;100488.63;5060547;28;20202;-69
2021/10/06 03:38:15;;;;;;;13.10;11.77;;;;;;;13.37;72.67;100492.97;5061040;28;20176;-69
2021/10/06 03:40:40;;;;;;;13.27;11.93;;;;;;;13.30;72.70;100496.47;5060187;28;20443;-70
2021/10/06 03:43:06;;;;;;;12.77;11.47;;;;;;;13.57;71.57;100510.31;5059768;28;20185;-69
2021/10/06 03:45:31;;;;;;;12.20;10.90;;;;;;;13.41;71.79;100502.56;5060753;28;20233;-69
2021/10/06 03:47:56;;;;;;;14.80;12.03;;;;;;;13.51;72.14;100511.22;5060146;28;20189;-68
2021/10/06 03:50:22;;;;;;;13.07;10.90;;;;;;;13.53;71.84;100522.56;5060097;28;20170;-68
2021/10/06 03:52:47;;;;;;;18.13;12.60;;;;;;;13.09;73.82;100523.63;5060425;28;20213;-68
2021/10/06 03:55:12;;;;;;;13.03;10.70;;;;;;;13.21;73.21;100538.41;5060185;28;20174;-69
2021/10/06 03:57:38;;;;;;;13.00;10.83;;;;;;;13.10;73.32;100523.63;5060130;28;20578;-69
2021/10/06 04:00:05;;;;;;;13.40;10.93;;;;;;;13.05;73.73;100520.13;5060720;28;20173;-70
2021/10/06 04:02:30;;;;;;;12.40;10.30;;;;;;;13.26;73.06;100528.75;5042546;28;20173;-69
2021/10/06 04:04:56;;;;;;;14.27;11.10;;;;;;;13.33;72.82;100525.25;5059897;28;20435;-70
2021/10/06 04:07:21;;;;;;;11.93;10.73;;;;;;;13.11;73.08;100524.47;5060226;28;20172;-68
2021/10/06 04:09:46;;;;;;;16.50;11.10;;;;;;;13.24;73.28;100527.91;5059906;28;20531;-68
2021/10/06 04:12:12;;;;;;;13.77;9.77;;;;;;;13.05;73.39;100533.22;5059603;28;20200;-68
2021/10/06 04:14:37;;;;;;;15.30;11.23;;;;;;;12.79;74.30;100549.88;5060259;28;20166;-68
2021/10/06 04:17:02;;;;;;;12.23;10.40;;;;;;;12.53;75.37;100542.09;5059552;28;20197;-68
2021/10/06 04:19:28;;;;;;;12.17;10.90;;;;;;;12.78;74.64;100544.66;5059827;28;20455;-68
2021/10/06 04:21:53;;;;;;;11.87;10.63;;;;;;;13.01;73.74;100549.81;5059960;28;20515;-69
2021/10/06 04:24:18;;;;;;;13.03;11.70;;;;;;;12.56;74.81;100552.56;5059746;28;20444;-69
2021/10/06 04:26:44;;;;;;;11.60;10.40;;;;;;;12.62;75.29;100556.91;5059436;28;20177;-69
2021/10/06 04:29:09;;;;;;;13.83;11.10;;;;;;;12.56;75.02;100555.16;5060188;28;20177;-68
2021/10/06 04:31:34;;;;;;;15.17;10.93;;;;;;;12.52;75.43;100555.19;5059070;28;20165;-68
2021/10/06 04:34:00;;;;;;;12.63;10.97;;;;;;;12.60;74.77;100556.91;5059250;28;20173;-68
2021/10/06 04:36:25;;;;;;;13.67;10.50;;;;;;;12.50;75.58;100564.75;5059596;28;20234;-69
2021/10/06 04:38:50;;;;;;;12.40;10.87;;;;;;;12.53;75.24;100575.19;5059309;28;20437;-68
2021/10/06 04:41:16;;;;;;;12.57;11.27;;;;;;;12.64;74.76;100565.63;5059019;28;20173;-68
2021/10/06 04:43:41;;;;;;;15.70;10.90;;;;;;;12.49;75.46;100574.34;5059893;28;20185;-69
2021/10/06 04:46:07;;;;;;;14.17;11.40;;;;;;;12.41;75.18;100579.59;5059071;28;20176;-68
2021/10/06 04:48:32;;;;;;;11.83;10.63;;;;;;;12.95;74.04;100576.88;5059050;28;20169;-68
2021/10/06 04:50:57;;;;;;;16.73;11.47;;;;;;;12.89;74.22;100581.25;5058790;28;20484;-68
2021/10/06 04:53:22;;;;;;;16.57;11.77;;;;;;;12.76;74.38;100585.66;5058302;28;20181;-68
2021/10/06 04:55:48;;;;;;;16.43;12.30;;;;;;;12.47;75.28;100594.38;5058110;28;20201;-69
2021/10/06 04:58:14;;;;;;;15.60;12.30;;;;;;;12.39;75.94;100594.38;5058866;28;20177;-69
2021/10/06 05:00:39;;;;;;;15.57;12.37;;;;;;;12.54;75.40;100604.00;5058880;28;20260;-69
2021/10/06 05:03:08;;;;;;;13.10;11.80;;;;;;;12.29;76.12;100590.91;5059027;28;20185;-69
2021/10/06 05:05:34;;;;;;;14.07;12.67;;;;;;;12.38;75.75;100600.50;5058569;28;20177;-69
2021/10/06 05:07:59;;;;;;;16.80;11.43;;;;;;;12.47;75.78;100602.22;5058612;28;20477;-68
2021/10/06 05:10:24;;;;;;;14.17;12.73;;;;;;;12.64;74.88;100608.31;5058158;28;20186;-69
2021/10/06 05:12:50;;;;;;;15.73;14.10;;;;;;;12.60;75.21;100600.50;5057758;28;20192;-68
2021/10/06 05:15:15;;;;;;;15.03;12.30;;;;;;;12.11;76.80;100614.44;5058450;28;20177;-68
2021/10/06 05:17:40;;;;;;;16.57;13.07;;;;;;;12.62;75.19;100617.03;5058760;28;20197;-68
2021/10/06 05:20:06;;;;;;;15.00;13.40;;;;;;;12.69;74.77;100613.56;5058230;28;20189;-68
2021/10/06 05:22:31;;;;;;;14.83;12.97;;;;;;;12.62;75.03;100614.44;5058327;28;20264;-69
2021/10/06 05:24:57;;;;;;;16.47;13.43;;;;;;;12.46;75.51;100619.69;5060564;28;20440;-69
2021/10/06 05:27:22;;;;;;;14.53;13.13;;;;;;;12.53;75.31;100617.03;5058732;28;20248;-69
2021/10/06 05:29:47;;;;;;;19.23;15.67;;;;;;;12.22;76.35;100631.00;5058536;28;20558;-69
2021/10/06 05:32:13;;;;;;;15.87;12.80;;;;;;;12.24;76.31;100625.75;5059093;28;20246;-68
2021/10/06 05:34:38;;;;;;;15.90;14.10;;;;;;;12.18;76.33;100626.63;5058419;28;20258;-69
2021/10/06 05:37:03;;;;;;;17.43;14.07;;;;;;;12.33;75.84;100623.16;5058301;28;20301;-68
2021/10/06 05:39:28;;;;;;;15.53;13.83;;;;;;;12.46;75.50;100635.38;5064250;28;20268;-68
2021/10/06 05:41:54;;;;;;;15.07;13.60;;;;;;;12.48;75.33;100637.13;5060383;28;20465;-70
2021/10/06 05:44:19;;;;;;;17.30;13.47;;;;;;;12.44;75.35;100642.31;5057916;28;20188;-68
2021/10/06 05:46:44;;;;;;;15.13;13.53;;;;;;;12.30;75.81;100646.69;5058428;28;20166;-68
2021/10/06 05:49:11;;;;;;;16.07;13.70;;;;;;;12.11;76.39;100657.09;5057831;28;20467;-68
2021/10/06 05:51:37;;;;;;;14.57;13.07;;;;;;;12.16;76.31;100662.31;5057682;28;20259;-69
2021/10/06 05:54:02;;;;;;;15.27;12.67;;;;;;;12.29;76.07;100660.63;5058515;28;20412;-68
2021/10/06 05:56:27;;;;;;;15.90;13.73;;;;;;;12.37;75.64;100663.25;5054466;28;20570;-68
2021/10/06 05:58:53;;;;;;;18.73;12.90;;;;;;;12.07;76.75;100668.44;5049278;28;20209;-68
2021/10/06 06:01:18;;;;;;;14.53;13.03;;;;;;;12.45;75.83;100671.97;5047583;28;20539;-68
2021/10/06 06:03:43;;;;;;;15.23;12.40;;;;;;;12.27;75.94;100678.03;5050656;28;20312;-68
2021/10/06 06:06:09;;;;;;;12.80;11.43;;;;;;;12.33;76.15;100670.22;5060860;28;20219;-68
2021/10/06 06:08:35;;;;;;;13.50;11.77;;;;;;;12.36;76.05;100688.50;5062098;28;20209;-69
2021/10/06 06:11:00;;;;;;;13.10;11.80;;;;;;;12.48;75.22;100678.94;5061523;28;20195;-68
2021/10/06 06:13:25;;;;;;;16.60;11.90;;;;;;;12.36;75.54;100688.50;5061202;28;20196;-69
2021/10/06 06:15:53;;;;;;;14.70;12.30;;;;;;;12.54;75.11;100689.41;5061436;28;20519;-68
2021/10/06 06:18:19;;;;;;;12.43;11.20;;;;;;;12.65;74.52;100695.53;5061084;28;20170;-69
2021/10/06 06:20:44;;;;;;;12.93;11.73;;;;;;;12.67;74.23;100691.16;5039210;28;20441;-68
2021/10/06 06:23:10;;;;;;;14.33;12.60;;;;;;;12.95;73.54;100697.25;5052524;28;20390;-68
2021/10/06 06:25:35;;;;;;;12.90;11.60;;;;;;;12.76;73.32;100709.47;5059220;28;20231;-68
2021/10/06 06:28:00;;;;;;;13.10;11.00;;;;;;;12.62;73.34;100701.63;5060903;28;20189;-68
2021/10/06 06:30:26;;;;;;;15.80;11.30;;;;;;;13.05;72.66;100703.34;5044144;28;20192;-69
2021/10/06 06:32:52;;;;;;;18.50;10.50;;;;;;;12.97;72.61;100705.09;5043993;28;20189;-67
2021/10/06 06:35:17;;;;;;;14.40;10.90;;;;;;;12.57;73.54;100707.69;5061414;28;20249;-67
2021/10/06 06:37:43;;;;;;;12.87;10.90;;;;;;;12.85;72.07;100705.09;5061132;28;20548;-68
2021/10/06 06:40:08;;;;;;;13.30;10.30;;;;;;;13.03;71.80;100717.28;5044425;28;20257;-67
2021/10/06 06:42:34;;;;;;;14.60;9.83;;;;;;;14.45;66.98;100704.56;5061062;28;20437;-68
2021/10/06 06:45:00;;;;;;;14.03;9.30;;;;;;;15.04;64.16;100701.47;5061262;28;20845;-67
2021/10/06 06:47:25;;;;;;;10.00;7.80;;;;;;;16.28;59.44;100698.28;5061065;28;20185;-68
2021/10/06 06:49:52;;;;;;;8.70;7.90;;;;;;;16.91;57.45;100704.31;5060521;28;20185;-68
2021/10/06 06:52:17;;;;;;;9.27;7.07;;;;;;;16.31;58.89;100707.88;5043407;28;20534;-68
2021/10/06 06:54:43;;;;;;;10.30;8.20;;;;;;;17.62;55.47;100707.44;5060525;28;20419;-67
2021/10/06 06:57:09;;;;;;;8.43;7.40;;;;;;;17.94;53.87;100706.78;5061128;28;20239;-68
2021/10/06 06:59:34;;;;;;;10.33;6.57;;;;;;;19.45;50.43;100709.31;5060764;28;20235;-67
2021/10/06 07:01:59;;;;;;;7.00;6.30;;;;;;;19.18;49.67;100707.34;5060842;28;20181;-68
2021/10/06 07:04:25;;;;;;;7.47;6.03;;;;;;;18.66;51.11;100708.69;5060790;28;20251;-67
2021/10/06 07:06:56;;;;;;;7.00;5.73;;;;;;;19.49;48.93;100710.94;5060591;28;20475;-68
2021/10/06 07:09:29;;;;;;;8.97;6.10;;;;;;;19.44;49.31;100719.00;5060799;28;20451;-68
2021/10/06 07:11:55;;;;;;;6.67;5.70;;;;;;;19.38;49.52;100729.75;5060969;28;20502;-67
2021/10/06 07:14:20;;;;;;;6.13;5.57;;;;;;;19.47;49.11;100726.88;5060095;28;20814;-68
2021/10/06 07:16:46;;;;;;;7.03;5.27;;;;;;;20.06;48.20;100733.13;5060017;28;20201;-68
2021/10/06 07:19:11;;;;;;;5.57;5.07;;;;;;;19.77;48.05;100726.91;5043235;28;20174;-67
2021/10/06 07:21:37;;;;;;;6.73;6.03;;;;;;;20.15;47.03;100726.72;5060214;28;20241;-68
2021/10/06 07:24:03;;;;;;;8.53;5.27;;;;;;;20.57;46.27;100733.38;5060316;28;20208;-67
2021/10/06 07:26:28;;;;;;;8.00;5.10;;;;;;;19.94;47.71;100744.94;5059766;28;20253;-67
2021/10/06 07:28:54;;;;;;;5.63;4.87;;;;;;;19.97;46.77;100744.88;5059854;28;20178;-68
2021/10/06 07:31:19;;;;;;;5.47;4.60;;;;;;;20.78;45.36;100745.94;5059501;28;20181;-68
2021/10/06 07:33:46;;;;;;;9.00;5.30;;;;;;;19.78;47.42;100755.09;5060086;28;20173;-68
2021/10/06 07:36:11;;;;;;;8.80;5.17;;;;;;;20.15;46.95;100761.13;5059222;28;20207;-68
2021/10/06 07:38:37;;;;;;;6.10;5.00;;;;;;;20.95;45.30;100753.31;5060083;28;20412;-68
2021/10/06 07:41:03;;;;;;;6.70;5.20;;;;;;;20.01;46.58;100766.81;5025877;28;20209;-68
2021/10/06 07:43:28;;;;;;;5.13;4.63;;;;;;;19.98;47.13;100762.47;5059831;28;20416;-68
2021/10/06 07:45:54;;;;;;;5.90;4.77;;;;;;;20.70;44.99;100769.16;5060147;28;20408;-68
2021/10/06 07:48:19;;;;;;;8.43;4.50;;;;;;;20.82;44.95;100776.72;5059671;28;20257;-68
2021/10/06 07:50:45;;;;;;;6.77;5.07;;;;;;;21.40;43.68;100785.41;5059272;28;20536;-69
2021/10/06 07:53:10;;;;;;;6.20;4.70;;;;;;;22.69;41.37;100777.97;5059386;28;20200;-68
2021/10/06 07:55:36;;;;;;;6.40;4.87;;;;;;;21.67;43.09;100787.09;5059231;28;20223;-68
2021/10/06 07:58:01;;;;;;;6.70;4.40;;;;;;;22.23;41.67;100778.88;5059303;28;20173;-68
2021/10/06 08:00:27;;;;;;;6.90;5.23;;;;;;;22.31;41.13;100780.34;5059050;28;20178;-68
2021/10/06 08:02:52;;;;;;;9.17;5.40;;;;;;;22.17;41.52;100786.16;5042559;28;20455;-69
2021/10/06 08:05:18;;;;;;;6.97;5.17;;;;;;;20.96;43.07;100799.22;5058002;28;20173;-67
2021/10/06 08:07:43;;;;;;;5.77;5.00;;;;;;;21.20;42.32;100801.09;5052236;28;20448;-70
2021/10/06 08:10:08;;;;;;;6.97;4.70;;;;;;;22.09;40.98;100790.88;5053798;28;20219;-71
2021/10/06 08:12:34;;;;;;;8.33;4.90;;;;;;;21.70;41.72;100800.28;5053172;28;20181;-68
2021/10/06 08:14:59;;;;;;;5.67;4.27;;;;;;;21.42;42.69;100810.06;5050543;28;20226;-68
2021/10/06 08:17:24;;;;;;;4.70;4.30;;;;;;;21.02;43.20;100817.59;5056198;28;20274;-68
2021/10/06 08:19:50;;;;;;;4.53;4.10;;;;;;;21.59;41.43;100823.66;5059168;28;20248;-68
2021/10/06 08:22:16;;;;;;;6.77;3.97;;;;;;;21.50;41.48;100806.25;5049884;28;20193;-68
2021/10/06 08:24:41;;;;;;;4.80;4.40;;;;;;;21.66;41.51;100811.03;5048029;28;20177;-68
2021/10/06 08:27:08;;;;;;;4.73;4.27;;;;;;;20.29;43.98;100826.88;5041772;28;20427;-69
2021/10/06 08:29:33;;;;;;;5.73;4.57;;;;;;;20.53;43.48;100823.50;5057853;28;20192;-68
2021/10/06 08:31:59;;;;;;;4.40;4.00;;;;;;;21.32;42.00;100828.94;5055709;28;20438;-68
2021/10/06 08:34:24;;;;;;;4.97;4.03;;;;;;;21.69;41.66;100826.88;5041249;28;20188;-68
2021/10/06 08:36:49;;;;;;;5.63;4.00;;;;;;;19.16;46.94;100841.31;5038518;28;20491;-68
2021/10/06 08:39:15;;;;;;;6.60;4.60;;;;;;;19.42;46.55;100839.78;5052946;28;20235;-68
2021/10/06 08:41:40;;;;;;;6.53;4.70;;;;;;;18.61;48.84;100846.06;5058794;28;20180;-67
2021/10/06 08:44:06;;;;;;;5.80;4.40;;;;;;;19.02;47.95;100848.69;5058642;28;20169;-67
2021/10/06 08:46:31;;;;;;;5.20;4.50;;;;;;;19.04;47.59;100852.19;5059363;28;20509;-68
2021/10/06 08:48:57;;;;;;;4.90;4.30;;;;;;;18.18;49.23;100852.25;5041480;28;20200;-68
2021/10/06 08:51:22;;;;;;;5.63;4.67;;;;;;;18.18;49.36;100858.44;5056269;28;20286;-68
2021/10/06 08:53:49;;;;;;;4.70;4.30;;;;;;;17.19;51.95;100861.91;5041243;28;20166;-68
2021/10/06 08:56:15;;;;;;;5.90;4.80;;;;;;;18.48;49.21;100861.31;5057763;28;20293;-68
2021/10/06 08:58:41;;;;;;;6.57;4.13;;;;;;;17.81;50.07;100884.59;5058648;28;20439;-68
2021/10/06 09:01:06;;;;;;;4.40;4.00;;;;;;;17.55;50.51;100869.22;5058289;28;20174;-68
2021/10/06 09:03:36;;;;;;;5.43;4.10;;;;;;;17.85;50.33;100873.09;5024844;28;20474;-68
2021/10/06 09:06:06;;;;;;;7.30;4.90;;;;;;;18.69;47.78;100874.97;5058349;28;20173;-68
2021/10/06 09:08:33;;;;;;;4.70;4.20;;;;;;;18.66;47.04;100878.53;5058578;28;20415;-68
2021/10/06 09:10:59;;;;;;;4.80;3.80;;;;;;;17.62;49.91;100890.19;5058442;28;20404;-68
2021/10/06 09:13:27;;;;;;;6.53;4.30;;;;;;;20.70;43.66;100880.41;5058237;28;20431;-68
2021/10/06 09:15:53;;;;;;;5.33;3.93;;;;;;;21.30;41.57;100877.69;5058654;28;20423;-68
2021/10/06 09:18:20;;;;;;;4.83;4.17;;;;;;;20.80;42.53;100878.38;5058361;28;20416;-68
2021/10/06 09:20:46;;;;;;;5.73;3.87;;;;;;;20.44;43.35;100884.66;5061207;28;20181;-68
2021/10/06 09:23:13;;;;;;;5.07;3.73;;;;;;;19.67;44.21;100892.03;5064305;28;20416;-67
2021/10/06 09:25:50;;;;;;;6.47;4.40;;;;;;;18.75;46.44;100897.72;5062966;28;20201;-68
2021/10/06 09:28:29;;;;;;;4.63;3.83;;;;;;;21.11;41.45;100903.91;5058135;28;20423;-69
2021/10/06 09:31:00;;;;;;;4.47;3.93;;;;;;;20.64;41.58;100907.06;5058465;28;20928;-68
2021/10/06 09:33:40;;;;;;;4.30;3.53;;;;;;;21.49;39.68;100900.00;5058095;28;20684;-68
2021/10/06 09:36:21;;;;;;;5.13;3.70;;;;;;;21.74;38.87;100903.66;5058143;28;20454;-68
2021/10/06 09:38:52;;;;;;;3.43;3.13;;;;;;;20.31;42.30;100912.41;5058010;28;20447;-68
2021/10/06 09:41:28;;;;;;;5.27;3.60;;;;;;;20.04;42.42;100909.66;5057534;28;20412;-67
2021/10/06 09:44:08;;;;;;;4.37;3.30;;;;;;;20.99;40.76;100924.56;5057911;28;20460;-68
2021/10/06 09:46:39;;;;;;;3.23;2.90;;;;;;;21.31;39.46;100916.50;5057897;28;20404;-69
2021/10/06 09:49:25;;;;;;;4.17;3.17;;;;;;;22.02;38.20;100892.94;5058079;28;20405;-68
2021/10/06 09:51:52;;;;;;;4.37;3.37;;;;;;;22.11;38.18;100908.53;5051322;28;20460;-68
2021/10/06 09:54:18;;;;;;;3.90;3.00;;;;;;;21.90;38.35;100914.59;5048493;28;20409;-68
2021/10/06 09:56:46;;;;;;;3.27;2.97;;;;;;;21.13;39.62;100913.53;5057051;28;20720;-69
2021/10/06 09:59:13;;;;;;;3.67;3.30;;;;;;;22.34;37.88;100915.69;5057737;28;20427;-69
2021/10/06 10:01:40;;;;;;;3.50;3.10;;;;;;;21.88;38.43;100927.94;5057735;28;20534;-69
2021/10/06 10:04:09;;;;;;;5.60;3.17;;;;;;;20.73;39.99;100921.84;5056366;28;20810;-69
2021/10/06 10:06:35;;;;;;;3.63;3.20;;;;;;;21.75;38.78;100927.47;5057476;28;20542;-69
2021/10/06 10:09:02;;;;;;;3.23;2.93;;;;;;;20.28;41.25;100928.41;5040849;28;20444;-69
2021/10/06 10:11:27;;;;;;;3.40;3.10;;;;;;;19.10;43.43;100933.94;5057529;28;20872;-70
2021/10/06 10:13:53;;;;;;;6.73;3.17;;;;;;;18.51;45.16;100943.09;5057791;28;20516;-71
2021/10/06 10:16:18;;;;;;;3.53;3.17;;;;;;;18.17;46.06;100943.75;5058208;28;20339;-68
2021/10/06 10:18:44;;;;;;;3.60;3.30;;;;;;;18.36;46.12;100943.41;5057438;28;20617;-70
2021/10/06 10:21:12;;;;;;;6.90;3.57;;;;;;;17.72;46.92;100953.31;5057814;28;20197;-68
2021/10/06 10:23:37;;;;;;;5.40;3.37;;;;;;;16.60;49.78;100961.88;5039467;28;20169;-69
2021/10/06 10:26:03;;;;;;;3.90;3.60;;;;;;;16.73;49.09;100952.94;5052879;28;20420;-68
2021/10/06 10:28:40;;;;;;;7.93;3.63;;;;;;;16.92;48.91;100965.91;5053361;28;20216;-68
2021/10/06 10:31:05;;;;;;;3.80;3.43;;;;;;;16.80;49.78;100973.03;5034923;28;20173;-68
2021/10/06 10:33:45;;;;;;;4.27;3.50;;;;;;;17.26;48.95;100968.06;5035332;28;20407;-68
2021/10/06 10:36:29;;;;;;;5.53;3.57;;;;;;;16.50;51.20;100972.50;5042943;28;20201;-68
2021/10/06 10:38:54;;;;;;;7.27;4.17;;;;;;;17.40;48.95;100973.13;5037562;28;20416;-70
2021/10/06 10:41:48;;;;;;;4.13;3.73;;;;;;;17.16;49.33;100981.38;5037194;28;20417;-68
2021/10/06 10:44:22;;;;;;;3.93;3.53;;;;;;;17.45;49.05;100982.72;5021340;28;20174;-68
2021/10/06 10:47:08;;;;;;;7.13;4.00;;;;;;;17.36;49.18;100984.63;5037693;28;20432;-69
2021/10/06 10:49:45;;;;;;;4.97;3.90;;;;;;;17.31;49.49;100992.59;5037306;28;20524;-68
2021/10/06 10:52:10;;;;;;;4.70;3.47;;;;;;;17.19;49.48;100998.91;5021370;28;20456;-68
2021/10/06 10:54:43;;;;;;;4.40;3.77;;;;;;;16.53;50.83;101005.81;5040883;28;20666;-68
2021/10/06 10:57:22;;;;;;;5.60;4.00;;;;;;;16.92;50.22;100992.25;5040958;28;20798;-68
2021/10/06 10:59:52;;;;;;;5.13;3.60;;;;;;;17.21;49.75;100996.25;5041146;28;20431;-68
2021/10/06 11:02:31;;;;;;;5.17;3.83;;;;;;;17.36;48.68;101006.59;5040919;28;20421;-68
2021/10/06 11:05:07;;;;;;;3.87;3.50;;;;;;;16.45;51.43;101005.91;5040671;28;20416;-67
2021/10/06 11:07:33;;;;;;;4.60;3.60;;;;;;;16.67;50.80;101017.06;5040748;28;20421;-68
2021/10/06 11:10:06;;;;;;;6.33;3.67;;;;;;;16.63;50.44;101015.38;5040512;28;20512;-68
2021/10/06 11:12:33;;;;;;;4.37;3.70;;;;;;;16.52;50.76;101024.25;5023934;28;20482;-67